^^
Saratoga-Weather Station Historical Data
Daily Summary for May 13, 2020 Units:  Both    English   Metric
Daily Weekly Monthly Yearly Custom
  High: Low: Average:
Temperature: 46 °F /  7.8 °C 37.2 °F /  2.9 °C 42.4 °F /  5.8 °C
Dew Point: 44.4 °F /  6.9 °C 36 °F /  2.2 °C 40.5 °F /  4.7 °C
Humidity: 97% 88% 93%
Wind Speed: 10.1mph /  16.3km/h - 1.6mph /  2.6km/h
Wind Gust: 12mph /  19.3km/h - -
Wind- - SW
Pressure: 29.9 in /  1012.9 hPa 29.7 in /  1005.8 hPa -
Precipitation: 0.01 in /  0.2 mm    
Historical Graphs
 
 
Tabular Data for May 13, 2020
Time Temperature Dew Point Pressure Wind Wind Speed Wind Gust Humidity Rainfall Rate (Hourly) solar
00:02 46 °F /  7.8 °C 44.4 °F /  6.9 °C 29.7in /  1005.8hPa WNW 8.1mph /  13km/h 10mph /  16.1km/h 94% 0.01in /  0.2mm 0 W/m2
00:07 46 °F /  7.8 °C 44.4 °F /  6.9 °C 29.7in /  1005.8hPa WNW 8.1mph /  13km/h 12mph /  19.3km/h 94% 0in /  0.0mm 0 W/m2
00:12 46 °F /  7.8 °C 44.4 °F /  6.9 °C 29.7in /  1005.8hPa West 6mph /  9.7km/h 12mph /  19.3km/h 94% 0in /  0.0mm 0 W/m2
00:17 46 °F /  7.8 °C 44.4 °F /  6.9 °C 29.7in /  1005.8hPa WNW 4.9mph /  7.9km/h 6mph /  9.7km/h 94% 0in /  0.0mm 0 W/m2
00:22 46 °F /  7.8 °C 44.4 °F /  6.9 °C 29.7in /  1005.8hPa West 2.9mph /  4.7km/h 7mph /  11.3km/h 94% 0in /  0.0mm 0 W/m2
00:27 46 °F /  7.8 °C 44.4 °F /  6.9 °C 29.7in /  1006.1hPa WSW 4mph /  6.4km/h 8mph /  12.9km/h 94% 0.01in /  0.2mm 0 W/m2
00:32 45.9 °F /  7.7 °C 44.4 °F /  6.9 °C 29.7in /  1006.1hPa West 4mph /  6.4km/h 8mph /  12.9km/h 95% 0.01in /  0.2mm 0 W/m2
00:37 45.9 °F /  7.7 °C 44.4 °F /  6.9 °C 29.7in /  1006.1hPa WSW 4mph /  6.4km/h 6mph /  9.7km/h 95% 0.01in /  0.2mm 0 W/m2
00:42 45.9 °F /  7.7 °C 44.2 °F /  6.8 °C 29.7in /  1006.1hPa West 10.1mph /  16.3km/h 11mph /  17.7km/h 94% 0.01in /  0.2mm 0 W/m2
00:47 45.9 °F /  7.7 °C 44.2 °F /  6.8 °C 29.7in /  1006.1hPa West 4mph /  6.4km/h 8mph /  12.9km/h 94% 0.01in /  0.2mm 0 W/m2
00:52 45.9 °F /  7.7 °C 44.2 °F /  6.8 °C 29.7in /  1006.4hPa West 2.9mph /  4.7km/h 11mph /  17.7km/h 94% 0.01in /  0.2mm 0 W/m2
00:57 45.9 °F /  7.7 °C 44.2 °F /  6.8 °C 29.7in /  1006.4hPa West 8.9mph /  14.3km/h 9mph /  14.5km/h 94% 0.01in /  0.2mm 0 W/m2
01:02 45.9 °F /  7.7 °C 44.2 °F /  6.8 °C 29.7in /  1006.4hPa West 6mph /  9.7km/h 8mph /  12.9km/h 94% 0.01in /  0.2mm 0 W/m2
01:07 45.9 °F /  7.7 °C 44.2 °F /  6.8 °C 29.7in /  1006.4hPa West 4mph /  6.4km/h 7mph /  11.3km/h 94% 0.01in /  0.2mm 0 W/m2
01:12 45.9 °F /  7.7 °C 44.2 °F /  6.8 °C 29.7in /  1006.4hPa WNW 6.9mph /  11.1km/h 7mph /  11.3km/h 94% 0.01in /  0.2mm 0 W/m2
01:17 45.9 °F /  7.7 °C 44.2 °F /  6.8 °C 29.7in /  1006.4hPa West 4mph /  6.4km/h 6mph /  9.7km/h 94% 0.01in /  0.2mm 0 W/m2
01:22 45.9 °F /  7.7 °C 44.2 °F /  6.8 °C 29.7in /  1006.4hPa West 6.9mph /  11.1km/h 7mph /  11.3km/h 94% 0.01in /  0.2mm 0 W/m2
01:27 45.7 °F /  7.6 °C 44.1 °F /  6.7 °C 29.7in /  1006.4hPa West 2.9mph /  4.7km/h 5mph /  8km/h 94% 0in /  0.0mm 0 W/m2
01:32 45.7 °F /  7.6 °C 44.1 °F /  6.7 °C 29.7in /  1006.8hPa West 4mph /  6.4km/h 9mph /  14.5km/h 94% 0in /  0.0mm 0 W/m2
01:37 45.7 °F /  7.6 °C 44.1 °F /  6.7 °C 29.7in /  1006.8hPa West 4mph /  6.4km/h 9mph /  14.5km/h 94% 0in /  0.0mm 0 W/m2
01:42 45.7 °F /  7.6 °C 44.1 °F /  6.7 °C 29.7in /  1006.8hPa West 6.9mph /  11.1km/h 7mph /  11.3km/h 94% 0in /  0.0mm 0 W/m2
01:47 45.7 °F /  7.6 °C 44.1 °F /  6.7 °C 29.7in /  1006.8hPa West 2mph /  3.2km/h 8mph /  12.9km/h 94% 0in /  0.0mm 0 W/m2
01:52 45.7 °F /  7.6 °C 44.1 °F /  6.7 °C 29.7in /  1006.8hPa WNW 4mph /  6.4km/h 9mph /  14.5km/h 94% 0in /  0.0mm 0 W/m2
01:57 45.5 °F /  7.5 °C 43.9 °F /  6.6 °C 29.7in /  1006.8hPa West 2.9mph /  4.7km/h 9mph /  14.5km/h 94% 0in /  0.0mm 0 W/m2
02:02 45.5 °F /  7.5 °C 43.9 °F /  6.6 °C 29.7in /  1006.8hPa West 2.9mph /  4.7km/h 10mph /  16.1km/h 94% 0in /  0.0mm 0 W/m2
02:07 45.5 °F /  7.5 °C 43.9 °F /  6.6 °C 29.7in /  1007.1hPa West 2.9mph /  4.7km/h 6mph /  9.7km/h 94% 0in /  0.0mm 0 W/m2
02:12 45.3 °F /  7.4 °C 43.7 °F /  6.5 °C 29.7in /  1007.1hPa NW 4mph /  6.4km/h 10mph /  16.1km/h 94% 0in /  0.0mm 0 W/m2
02:17 45.5 °F /  7.5 °C 43.9 °F /  6.6 °C 29.7in /  1007.1hPa WSW 2.9mph /  4.7km/h 9mph /  14.5km/h 94% 0in /  0.0mm 0 W/m2
02:22 45.5 °F /  7.5 °C 43.9 °F /  6.6 °C 29.7in /  1007.1hPa WNW 4mph /  6.4km/h 10mph /  16.1km/h 94% 0in /  0.0mm 0 W/m2
02:27 45.5 °F /  7.5 °C 43.9 °F /  6.6 °C 29.8in /  1007.5hPa West 6mph /  9.7km/h 6mph /  9.7km/h 94% 0in /  0.0mm 0 W/m2
02:32 45.3 °F /  7.4 °C 43.7 °F /  6.5 °C 29.8in /  1007.5hPa West 2mph /  3.2km/h 6mph /  9.7km/h 94% 0in /  0.0mm 0 W/m2
02:37 45.3 °F /  7.4 °C 43.7 °F /  6.5 °C 29.8in /  1007.5hPa West 6mph /  9.7km/h 7mph /  11.3km/h 94% 0in /  0.0mm 0 W/m2
02:42 45.3 °F /  7.4 °C 43.7 °F /  6.5 °C 29.8in /  1007.5hPa West 4mph /  6.4km/h 7mph /  11.3km/h 94% 0in /  0.0mm 0 W/m2
02:47 45.3 °F /  7.4 °C 43.7 °F /  6.5 °C 29.8in /  1007.5hPa WNW 8.1mph /  13km/h 10mph /  16.1km/h 94% 0in /  0.0mm 0 W/m2
02:52 45.3 °F /  7.4 °C 43.7 °F /  6.5 °C 29.8in /  1007.8hPa NW 4.9mph /  7.9km/h 7mph /  11.3km/h 94% 0in /  0.0mm 0 W/m2
02:57 45.3 °F /  7.4 °C 43.7 °F /  6.5 °C 29.8in /  1007.8hPa WSW 4mph /  6.4km/h 10mph /  16.1km/h 94% 0in /  0.0mm 0 W/m2
03:02 45.3 °F /  7.4 °C 43.3 °F /  6.3 °C 29.8in /  1007.8hPa NW 2mph /  3.2km/h 5mph /  8km/h 93% 0in /  0.0mm 0 W/m2
03:07 45.3 °F /  7.4 °C 43.3 °F /  6.3 °C 29.8in /  1007.8hPa West 2mph /  3.2km/h 10mph /  16.1km/h 93% 0in /  0.0mm 0 W/m2
03:12 45.1 °F /  7.3 °C 43.2 °F /  6.2 °C 29.8in /  1007.8hPa SW 2mph /  3.2km/h 4mph /  6.4km/h 93% 0in /  0.0mm 0 W/m2
03:17 45.1 °F /  7.3 °C 43.5 °F /  6.4 °C 29.8in /  1008.1hPa West 2.9mph /  4.7km/h 4mph /  6.4km/h 94% 0in /  0.0mm 0 W/m2
03:22 45.1 °F /  7.3 °C 43.5 °F /  6.4 °C 29.8in /  1008.1hPa WNW 2.9mph /  4.7km/h 7mph /  11.3km/h 94% 0in /  0.0mm 0 W/m2
03:27 45.1 °F /  7.3 °C 43.5 °F /  6.4 °C 29.8in /  1008.1hPa WNW 6mph /  9.7km/h 10mph /  16.1km/h 94% 0in /  0.0mm 0 W/m2
03:32 45.1 °F /  7.3 °C 43.5 °F /  6.4 °C 29.8in /  1008.1hPa West 2.9mph /  4.7km/h 5mph /  8km/h 94% 0in /  0.0mm 0 W/m2
03:37 45.1 °F /  7.3 °C 43.2 °F /  6.2 °C 29.8in /  1008.1hPa WNW 6mph /  9.7km/h 11mph /  17.7km/h 93% 0in /  0.0mm 0 W/m2
03:42 45.1 °F /  7.3 °C 43.2 °F /  6.2 °C 29.8in /  1008.1hPa WNW 2.9mph /  4.7km/h 6mph /  9.7km/h 93% 0in /  0.0mm 0 W/m2
03:47 45.1 °F /  7.3 °C 43.2 °F /  6.2 °C 29.8in /  1008.1hPa West 4mph /  6.4km/h 7mph /  11.3km/h 93% 0in /  0.0mm 0 W/m2
03:52 45.1 °F /  7.3 °C 43.2 °F /  6.2 °C 29.8in /  1008.5hPa West 0.9mph /  1.4km/h 6mph /  9.7km/h 93% 0in /  0.0mm 0 W/m2
03:57 45.1 °F /  7.3 °C 43.2 °F /  6.2 °C 29.8in /  1008.5hPa WNW 4mph /  6.4km/h 6mph /  9.7km/h 93% 0in /  0.0mm 0 W/m2
04:02 45 °F /  7.2 °C 43.3 °F /  6.3 °C 29.8in /  1008.5hPa West 2.9mph /  4.7km/h 4mph /  6.4km/h 94% 0in /  0.0mm 0 W/m2
04:07 45 °F /  7.2 °C 43.3 °F /  6.3 °C 29.8in /  1008.5hPa WSW 2.9mph /  4.7km/h 6mph /  9.7km/h 94% 0in /  0.0mm 0 W/m2
04:12 45 °F /  7.2 °C 43 °F /  6.1 °C 29.8in /  1008.5hPa West 0.9mph /  1.4km/h 4mph /  6.4km/h 93% 0in /  0.0mm 0 W/m2
04:17 45 °F /  7.2 °C 43 °F /  6.1 °C 29.8in /  1008.5hPa WNW 4mph /  6.4km/h 7mph /  11.3km/h 93% 0in /  0.0mm 0 W/m2
04:22 45 °F /  7.2 °C 43.3 °F /  6.3 °C 29.8in /  1008.8hPa WNW 2.9mph /  4.7km/h 7mph /  11.3km/h 94% 0in /  0.0mm 0 W/m2
04:27 45 °F /  7.2 °C 43.3 °F /  6.3 °C 29.8in /  1008.8hPa WSW 2mph /  3.2km/h 9mph /  14.5km/h 94% 0in /  0.0mm 0 W/m2
04:32 45 °F /  7.2 °C 43.3 °F /  6.3 °C 29.8in /  1008.8hPa West 2mph /  3.2km/h 4mph /  6.4km/h 94% 0in /  0.0mm 0 W/m2
04:37 45 °F /  7.2 °C 43.3 °F /  6.3 °C 29.8in /  1008.8hPa WNW 2.9mph /  4.7km/h 5mph /  8km/h 94% 0in /  0.0mm 0 W/m2
04:42 45 °F /  7.2 °C 43.3 °F /  6.3 °C 29.8in /  1009.1hPa NW 2mph /  3.2km/h 6mph /  9.7km/h 94% 0in /  0.0mm 0 W/m2
04:47 45 °F /  7.2 °C 43.3 °F /  6.3 °C 29.8in /  1008.8hPa WSW 0.9mph /  1.4km/h 4mph /  6.4km/h 94% 0in /  0.0mm 0 W/m2
04:52 44.8 °F /  7.1 °C 43.2 °F /  6.2 °C 29.8in /  1009.1hPa WSW 2mph /  3.2km/h 6mph /  9.7km/h 94% 0in /  0.0mm 0 W/m2
04:57 44.8 °F /  7.1 °C 43.2 °F /  6.2 °C 29.8in /  1009.1hPa WSW 0.9mph /  1.4km/h 4mph /  6.4km/h 94% 0in /  0.0mm 0 W/m2
05:02 44.8 °F /  7.1 °C 43.2 °F /  6.2 °C 29.8in /  1009.1hPa West 2mph /  3.2km/h 4mph /  6.4km/h 94% 0in /  0.0mm 0 W/m2
05:07 44.6 °F /  7 °C 43 °F /  6.1 °C 29.8in /  1009.1hPa West 2.9mph /  4.7km/h 7mph /  11.3km/h 94% 0in /  0.0mm 0 W/m2
05:12 44.6 °F /  7 °C 43 °F /  6.1 °C 29.8in /  1009.1hPa WSW 2.9mph /  4.7km/h 4mph /  6.4km/h 94% 0in /  0.0mm 0 W/m2
05:17 44.6 °F /  7 °C 43 °F /  6.1 °C 29.8in /  1009.1hPa West 2mph /  3.2km/h 7mph /  11.3km/h 94% 0in /  0.0mm 0 W/m2
05:22 44.6 °F /  7 °C 43 °F /  6.1 °C 29.8in /  1009.1hPa WNW 4mph /  6.4km/h 5mph /  8km/h 94% 0in /  0.0mm 0 W/m2
05:27 44.4 °F /  6.9 °C 42.8 °F /  6 °C 29.8in /  1009.1hPa West 2.9mph /  4.7km/h 7mph /  11.3km/h 94% 0in /  0.0mm 0 W/m2
05:32 44.4 °F /  6.9 °C 42.8 °F /  6 °C 29.8in /  1009.1hPa Calm   2mph /  3.2km/h 94% 0in /  0.0mm 0 W/m2
05:37 44.4 °F /  6.9 °C 42.8 °F /  6 °C 29.8in /  1009.1hPa West 2mph /  3.2km/h 4mph /  6.4km/h 94% 0in /  0.0mm 0 W/m2
05:42 44.4 °F /  6.9 °C 42.8 °F /  6 °C 29.8in /  1009.1hPa WNW 2.9mph /  4.7km/h 3mph /  4.8km/h 94% 0in /  0.0mm 0 W/m2
05:47 44.4 °F /  6.9 °C 42.8 °F /  6 °C 29.8in /  1009.5hPa WSW 0.9mph /  1.4km/h 4mph /  6.4km/h 94% 0in /  0.0mm 0 W/m2
05:52 44.4 °F /  6.9 °C 42.8 °F /  6 °C 29.8in /  1009.1hPa WNW 2mph /  3.2km/h 4mph /  6.4km/h 94% 0in /  0.0mm 0 W/m2
05:57 44.2 °F /  6.8 °C 42.6 °F /  5.9 °C 29.8in /  1009.5hPa Calm   3mph /  4.8km/h 94% 0in /  0.0mm 0 W/m2
06:02 44.2 °F /  6.8 °C 42.6 °F /  5.9 °C 29.8in /  1009.5hPa Calm   2mph /  3.2km/h 94% 0in /  0.0mm 0 W/m2
06:07 44.2 °F /  6.8 °C 42.6 °F /  5.9 °C 29.8in /  1009.5hPa WNW 2mph /  3.2km/h 3mph /  4.8km/h 94% 0in /  0.0mm 0 W/m2
06:12 44.2 °F /  6.8 °C 42.6 °F /  5.9 °C 29.8in /  1009.5hPa Calm   4mph /  6.4km/h 94% 0in /  0.0mm 0 W/m2
06:17 44.2 °F /  6.8 °C 42.6 °F /  5.9 °C 29.8in /  1009.8hPa SW 2.9mph /  4.7km/h 5mph /  8km/h 94% 0in /  0.0mm 0 W/m2
06:22 44.2 °F /  6.8 °C 42.6 °F /  5.9 °C 29.8in /  1009.8hPa West 2mph /  3.2km/h 2mph /  3.2km/h 94% 0in /  0.0mm 0 W/m2
06:28 44.1 °F /  6.7 °C 42.4 °F /  5.8 °C 29.8in /  1009.8hPa West 2mph /  3.2km/h 5mph /  8km/h 94% 0in /  0.0mm 0 W/m2
06:33 44.1 °F /  6.7 °C 42.4 °F /  5.8 °C 29.8in /  1009.8hPa West 2.9mph /  4.7km/h 3mph /  4.8km/h 94% 0in /  0.0mm 0 W/m2
06:38 44.1 °F /  6.7 °C 42.4 °F /  5.8 °C 29.8in /  1009.8hPa West 2.9mph /  4.7km/h 3mph /  4.8km/h 94% 0in /  0.0mm 0 W/m2
06:43 44.1 °F /  6.7 °C 42.4 °F /  5.8 °C 29.8in /  1010.2hPa WNW 2mph /  3.2km/h 4mph /  6.4km/h 94% 0in /  0.0mm 0 W/m2
06:48 44.1 °F /  6.7 °C 42.4 °F /  5.8 °C 29.8in /  1010.2hPa SSW 0.9mph /  1.4km/h 4mph /  6.4km/h 94% 0in /  0.0mm 0 W/m2
06:53 44.1 °F /  6.7 °C 42.4 °F /  5.8 °C 29.8in /  1010.2hPa West 2mph /  3.2km/h 3mph /  4.8km/h 94% 0in /  0.0mm 0 W/m2
06:58 44.1 °F /  6.7 °C 42.4 °F /  5.8 °C 29.8in /  1010.2hPa Calm   3mph /  4.8km/h 94% 0in /  0.0mm 0 W/m2
07:03 43.9 °F /  6.6 °C 42.3 °F /  5.7 °C 29.8in /  1010.2hPa Calm   1mph /  1.6km/h 94% 0in /  0.0mm 0 W/m2
07:08 43.9 °F /  6.6 °C 42.3 °F /  5.7 °C 29.8in /  1010.2hPa West 2.9mph /  4.7km/h 3mph /  4.8km/h 94% 0in /  0.0mm 0 W/m2
07:13 43.7 °F /  6.5 °C 42.1 °F /  5.6 °C 29.8in /  1010.2hPa Calm     94% 0in /  0.0mm 0 W/m2
07:18 43.5 °F /  6.4 °C 41.9 °F /  5.5 °C 29.8in /  1010.2hPa SW 0.9mph /  1.4km/h 5mph /  8km/h 94% 0in /  0.0mm 0 W/m2
07:23 43.5 °F /  6.4 °C 41.9 °F /  5.5 °C 29.8in /  1010.2hPa WNW 2mph /  3.2km/h 4mph /  6.4km/h 94% 0in /  0.0mm 0 W/m2
07:28 43.5 °F /  6.4 °C 41.9 °F /  5.5 °C 29.8in /  1010.5hPa WSW 2mph /  3.2km/h 3mph /  4.8km/h 94% 0in /  0.0mm 0 W/m2
07:33 43.5 °F /  6.4 °C 41.9 °F /  5.5 °C 29.8in /  1010.5hPa Calm   4mph /  6.4km/h 94% 0in /  0.0mm 0 W/m2
07:38 43.3 °F /  6.3 °C 41.7 °F /  5.4 °C 29.8in /  1010.5hPa West 2.9mph /  4.7km/h 7mph /  11.3km/h 94% 0in /  0.0mm 0 W/m2
07:43 43.3 °F /  6.3 °C 41.7 °F /  5.4 °C 29.8in /  1010.5hPa Calm   2mph /  3.2km/h 94% 0in /  0.0mm 0 W/m2
07:48 43.3 °F /  6.3 °C 41.7 °F /  5.4 °C 29.9in /  1010.8hPa West 2.9mph /  4.7km/h 7mph /  11.3km/h 94% 0in /  0.0mm 0 W/m2
07:53 43.3 °F /  6.3 °C 41.7 °F /  5.4 °C 29.9in /  1010.8hPa Calm   1mph /  1.6km/h 94% 0in /  0.0mm 0 W/m2
07:58 43.3 °F /  6.3 °C 41.5 °F /  5.3 °C 29.9in /  1010.8hPa Calm   4mph /  6.4km/h 93% 0in /  0.0mm 0 W/m2
08:03 43.3 °F /  6.3 °C 41.5 °F /  5.3 °C 29.9in /  1010.8hPa West 0.9mph /  1.4km/h 2mph /  3.2km/h 93% 0in /  0.0mm 0 W/m2
08:08 43.3 °F /  6.3 °C 41.5 °F /  5.3 °C 29.9in /  1010.8hPa Calm   2mph /  3.2km/h 93% 0in /  0.0mm 0 W/m2
08:13 43.3 °F /  6.3 °C 41.7 °F /  5.4 °C 29.9in /  1010.8hPa Calm   2mph /  3.2km/h 94% 0in /  0.0mm 0 W/m2
08:18 43.3 °F /  6.3 °C 41.5 °F /  5.3 °C 29.9in /  1010.8hPa Calm     93% 0in /  0.0mm 0 W/m2
08:23 43.2 °F /  6.2 °C 41.4 °F /  5.2 °C 29.9in /  1010.8hPa SW 0.9mph /  1.4km/h 3mph /  4.8km/h 93% 0in /  0.0mm 0 W/m2
08:28 43.2 °F /  6.2 °C 41.4 °F /  5.2 °C 29.9in /  1011.2hPa SW 0.9mph /  1.4km/h 2mph /  3.2km/h 93% 0in /  0.0mm 0 W/m2
08:33 43.2 °F /  6.2 °C 41.4 °F /  5.2 °C 29.9in /  1011.2hPa Calm   3mph /  4.8km/h 93% 0in /  0.0mm 0 W/m2
08:38 43.2 °F /  6.2 °C 41.4 °F /  5.2 °C 29.9in /  1011.2hPa WNW 2mph /  3.2km/h 3mph /  4.8km/h 93% 0in /  0.0mm 0 W/m2
08:43 43.2 °F /  6.2 °C 41.4 °F /  5.2 °C 29.9in /  1011.2hPa WNW 0.9mph /  1.4km/h 2mph /  3.2km/h 93% 0in /  0.0mm 5 W/m2
08:48 43 °F /  6.1 °C 41.2 °F /  5.1 °C 29.9in /  1011.2hPa West 0.9mph /  1.4km/h 4mph /  6.4km/h 93% 0in /  0.0mm 9 W/m2
08:53 43 °F /  6.1 °C 41.2 °F /  5.1 °C 29.9in /  1011.2hPa Calm     93% 0in /  0.0mm 9 W/m2
08:58 43 °F /  6.1 °C 41.2 °F /  5.1 °C 29.9in /  1011.2hPa Calm   4mph /  6.4km/h 93% 0in /  0.0mm 9 W/m2
09:03 42.8 °F /  6 °C 41 °F /  5 °C 29.9in /  1011.5hPa West 0.9mph /  1.4km/h 2mph /  3.2km/h 93% 0in /  0.0mm 12 W/m2
09:08 42.6 °F /  5.9 °C 40.8 °F /  4.9 °C 29.9in /  1011.5hPa ESE 0.9mph /  1.4km/h 3mph /  4.8km/h 93% 0in /  0.0mm 14 W/m2
09:13 42.6 °F /  5.9 °C 40.8 °F /  4.9 °C 29.9in /  1011.5hPa NW 0.9mph /  1.4km/h 4mph /  6.4km/h 93% 0in /  0.0mm 14 W/m2
09:18 42.6 °F /  5.9 °C 41 °F /  5 °C 29.9in /  1011.5hPa NW 2.9mph /  4.7km/h 3mph /  4.8km/h 94% 0in /  0.0mm 25 W/m2
09:23 42.6 °F /  5.9 °C 40.8 °F /  4.9 °C 29.9in /  1011.9hPa Calm   4mph /  6.4km/h 93% 0in /  0.0mm 37 W/m2
09:28 42.6 °F /  5.9 °C 40.8 °F /  4.9 °C 29.9in /  1011.9hPa WSW 0.9mph /  1.4km/h 2mph /  3.2km/h 93% 0in /  0.0mm 40 W/m2
09:33 42.8 °F /  6 °C 41 °F /  5 °C 29.9in /  1011.9hPa Calm   2mph /  3.2km/h 93% 0in /  0.0mm 42 W/m2
09:38 42.8 °F /  6 °C 41 °F /  5 °C 29.9in /  1011.9hPa WNW 2mph /  3.2km/h 3mph /  4.8km/h 93% 0in /  0.0mm 40 W/m2
09:43 42.6 °F /  5.9 °C 40.5 °F /  4.7 °C 29.9in /  1011.9hPa SW 0.9mph /  1.4km/h 3mph /  4.8km/h 92% 0in /  0.0mm 33 W/m2
09:48 42.6 °F /  5.9 °C 40.5 °F /  4.7 °C 29.9in /  1011.9hPa SE 2mph /  3.2km/h 4mph /  6.4km/h 92% 0in /  0.0mm 33 W/m2
09:53 42.4 °F /  5.8 °C 40.3 °F /  4.6 °C 29.9in /  1011.9hPa Calm   2mph /  3.2km/h 92% 0in /  0.0mm 32 W/m2
09:58 42.4 °F /  5.8 °C 40.3 °F /  4.6 °C 29.9in /  1011.9hPa NNW 2.9mph /  4.7km/h 3mph /  4.8km/h 92% 0in /  0.0mm 30 W/m2
10:03 42.4 °F /  5.8 °C 40.3 °F /  4.6 °C 29.9in /  1012.2hPa Calm   2mph /  3.2km/h 92% 0in /  0.0mm 32 W/m2
10:08 42.4 °F /  5.8 °C 39.9 °F /  4.4 °C 29.9in /  1012.2hPa West 2mph /  3.2km/h 7mph /  11.3km/h 91% 0in /  0.0mm 35 W/m2
10:13 42.4 °F /  5.8 °C 39.9 °F /  4.4 °C 29.9in /  1012.2hPa Calm   2mph /  3.2km/h 91% 0in /  0.0mm 51 W/m2
10:18 42.3 °F /  5.7 °C 39.7 °F /  4.3 °C 29.9in /  1012.2hPa NNW 0.9mph /  1.4km/h 7mph /  11.3km/h 91% 0in /  0.0mm 58 W/m2
10:23 42.3 °F /  5.7 °C 39.7 °F /  4.3 °C 29.9in /  1012.5hPa WNW 2.9mph /  4.7km/h 6mph /  9.7km/h 91% 0in /  0.0mm 65 W/m2
10:28 42.3 °F /  5.7 °C 39.7 °F /  4.3 °C 29.9in /  1012.5hPa Calm   2mph /  3.2km/h 91% 0in /  0.0mm 76 W/m2
10:33 42.1 °F /  5.6 °C 39.6 °F /  4.2 °C 29.9in /  1012.5hPa ESE 0.9mph /  1.4km/h 6mph /  9.7km/h 91% 0in /  0.0mm 69 W/m2
10:38 42.1 °F /  5.6 °C 39.6 °F /  4.2 °C 29.9in /  1012.5hPa Calm   6mph /  9.7km/h 91% 0in /  0.0mm 81 W/m2
10:43 42.1 °F /  5.6 °C 39.6 °F /  4.2 °C 29.9in /  1012.5hPa East 2mph /  3.2km/h 3mph /  4.8km/h 91% 0in /  0.0mm 90 W/m2
10:48 42.1 °F /  5.6 °C 39.9 °F /  4.4 °C 29.9in /  1012.5hPa West 2mph /  3.2km/h 7mph /  11.3km/h 92% 0in /  0.0mm 83 W/m2
10:53 41.9 °F /  5.5 °C 39.7 °F /  4.3 °C 29.9in /  1012.9hPa Calm   3mph /  4.8km/h 92% 0in /  0.0mm 79 W/m2
10:58 41.9 °F /  5.5 °C 39.7 °F /  4.3 °C 29.9in /  1012.9hPa WNW 2.9mph /  4.7km/h 4mph /  6.4km/h 92% 0in /  0.0mm 84 W/m2
11:03 41.9 °F /  5.5 °C 39.7 °F /  4.3 °C 29.9in /  1012.5hPa WSW 0.9mph /  1.4km/h 3mph /  4.8km/h 92% 0in /  0.0mm 86 W/m2
11:08 41.9 °F /  5.5 °C 39.7 °F /  4.3 °C 29.9in /  1012.9hPa WNW 4mph /  6.4km/h 4mph /  6.4km/h 92% 0in /  0.0mm 91 W/m2
11:13 41.5 °F /  5.3 °C 39.2 °F /  4 °C 29.9in /  1012.9hPa West 4mph /  6.4km/h 8mph /  12.9km/h 91% 0in /  0.0mm 95 W/m2
11:18 41.4 °F /  5.2 °C 39 °F /  3.9 °C 29.9in /  1012.9hPa WNW 0.9mph /  1.4km/h 4mph /  6.4km/h 91% 0in /  0.0mm 90 W/m2
11:23 41.5 °F /  5.3 °C 39.4 °F /  4.1 °C 29.9in /  1012.9hPa WNW 2.9mph /  4.7km/h 3mph /  4.8km/h 92% 0in /  0.0mm 76 W/m2
11:28 41.5 °F /  5.3 °C 39.4 °F /  4.1 °C 29.9in /  1012.9hPa NNW 2.9mph /  4.7km/h 3mph /  4.8km/h 92% 0in /  0.0mm 62 W/m2
11:33 41.5 °F /  5.3 °C 39.4 °F /  4.1 °C 29.9in /  1012.9hPa NW 2mph /  3.2km/h 2mph /  3.2km/h 92% 0in /  0.0mm 65 W/m2
11:38 41.5 °F /  5.3 °C 39.4 °F /  4.1 °C 29.9in /  1012.9hPa Calm   6mph /  9.7km/h 92% 0in /  0.0mm 69 W/m2
11:43 41.5 °F /  5.3 °C 39.4 °F /  4.1 °C 29.9in /  1012.9hPa South 0.9mph /  1.4km/h 3mph /  4.8km/h 92% 0in /  0.0mm 69 W/m2
11:48 41.5 °F /  5.3 °C 39.4 °F /  4.1 °C 29.9in /  1012.9hPa WSW 0.9mph /  1.4km/h 2mph /  3.2km/h 92% 0in /  0.0mm 81 W/m2
11:53 41.7 °F /  5.4 °C 39.6 °F /  4.2 °C 29.9in /  1012.5hPa Calm     92% 0in /  0.0mm 83 W/m2
11:58 41.7 °F /  5.4 °C 39.6 °F /  4.2 °C 29.9in /  1012.5hPa NNW 0.9mph /  1.4km/h 4mph /  6.4km/h 92% 0in /  0.0mm 69 W/m2
12:03 41.7 °F /  5.4 °C 39.6 °F /  4.2 °C 29.9in /  1012.5hPa NNW 0.9mph /  1.4km/h 3mph /  4.8km/h 92% 0in /  0.0mm 69 W/m2
12:08 41.7 °F /  5.4 °C 39.2 °F /  4 °C 29.9in /  1012.5hPa NE 2mph /  3.2km/h 5mph /  8km/h 91% 0in /  0.0mm 72 W/m2
12:13 41.7 °F /  5.4 °C 39.2 °F /  4 °C 29.9in /  1012.5hPa Calm   2mph /  3.2km/h 91% 0in /  0.0mm 70 W/m2
12:18 41.7 °F /  5.4 °C 39.2 °F /  4 °C 29.9in /  1012.5hPa NW 2.9mph /  4.7km/h 4mph /  6.4km/h 91% 0in /  0.0mm 84 W/m2
12:23 41.7 °F /  5.4 °C 39.6 °F /  4.2 °C 29.9in /  1012.5hPa NE 2mph /  3.2km/h 2mph /  3.2km/h 92% 0in /  0.0mm 81 W/m2
12:28 41.7 °F /  5.4 °C 39.2 °F /  4 °C 29.9in /  1012.5hPa Calm   4mph /  6.4km/h 91% 0in /  0.0mm 88 W/m2
12:33 41.7 °F /  5.4 °C 39.2 °F /  4 °C 29.9in /  1012.5hPa NNW 2mph /  3.2km/h 4mph /  6.4km/h 91% 0in /  0.0mm 91 W/m2
12:38 41.7 °F /  5.4 °C 39.2 °F /  4 °C 29.9in /  1012.5hPa NW 0.9mph /  1.4km/h 2mph /  3.2km/h 91% 0in /  0.0mm 93 W/m2
12:43 41.9 °F /  5.5 °C 39.4 °F /  4.1 °C 29.9in /  1012.5hPa West 2mph /  3.2km/h 3mph /  4.8km/h 91% 0in /  0.0mm 77 W/m2
12:48 41.9 °F /  5.5 °C 39.4 °F /  4.1 °C 29.9in /  1012.2hPa NNW 2mph /  3.2km/h 3mph /  4.8km/h 91% 0in /  0.0mm 74 W/m2
12:53 41.9 °F /  5.5 °C 39.4 °F /  4.1 °C 29.9in /  1012.2hPa NE 2mph /  3.2km/h 3mph /  4.8km/h 91% 0in /  0.0mm 74 W/m2
12:58 41.9 °F /  5.5 °C 39.4 °F /  4.1 °C 29.9in /  1012.2hPa SSE 0.9mph /  1.4km/h 3mph /  4.8km/h 91% 0in /  0.0mm 81 W/m2
13:03 41.9 °F /  5.5 °C 39.4 °F /  4.1 °C 29.9in /  1012.2hPa Calm   2mph /  3.2km/h 91% 0in /  0.0mm 69 W/m2
13:08 42.1 °F /  5.6 °C 39.6 °F /  4.2 °C 29.9in /  1012.2hPa NW 4mph /  6.4km/h 4mph /  6.4km/h 91% 0in /  0.0mm 79 W/m2
13:13 42.1 °F /  5.6 °C 39.6 °F /  4.2 °C 29.9in /  1012.2hPa WSW 4mph /  6.4km/h 4mph /  6.4km/h 91% 0in /  0.0mm 65 W/m2
13:18 42.1 °F /  5.6 °C 39.4 °F /  4.1 °C 29.9in /  1012.2hPa SE 2.9mph /  4.7km/h 3mph /  4.8km/h 90% 0in /  0.0mm 67 W/m2
13:23 42.3 °F /  5.7 °C 39.7 °F /  4.3 °C 29.9in /  1012.2hPa Calm   1mph /  1.6km/h 91% 0in /  0.0mm 69 W/m2
13:28 42.3 °F /  5.7 °C 39.6 °F /  4.2 °C 29.9in /  1012.2hPa NNW 0.9mph /  1.4km/h 4mph /  6.4km/h 90% 0in /  0.0mm 67 W/m2
13:33 42.3 °F /  5.7 °C 39.7 °F /  4.3 °C 29.9in /  1012.2hPa East 0.9mph /  1.4km/h 4mph /  6.4km/h 91% 0in /  0.0mm 70 W/m2
13:38 42.3 °F /  5.7 °C 39.7 °F /  4.3 °C 29.9in /  1011.9hPa NE 0.9mph /  1.4km/h 2mph /  3.2km/h 91% 0in /  0.0mm 56 W/m2
13:43 42.4 °F /  5.8 °C 39.9 °F /  4.4 °C 29.9in /  1012.2hPa NE 2mph /  3.2km/h 2mph /  3.2km/h 91% 0in /  0.0mm 58 W/m2
13:48 42.4 °F /  5.8 °C 39.7 °F /  4.3 °C 29.9in /  1012.2hPa Calm   2mph /  3.2km/h 90% 0in /  0.0mm 60 W/m2
13:53 42.4 °F /  5.8 °C 39.7 °F /  4.3 °C 29.9in /  1012.2hPa WNW 2mph /  3.2km/h 6mph /  9.7km/h 90% 0in /  0.0mm 72 W/m2
13:59 42.4 °F /  5.8 °C 39.7 °F /  4.3 °C 29.9in /  1011.9hPa West 2.9mph /  4.7km/h 4mph /  6.4km/h 90% 0in /  0.0mm 91 W/m2
14:04 42.4 °F /  5.8 °C 39.7 °F /  4.3 °C 29.9in /  1011.9hPa NW 0.9mph /  1.4km/h 3mph /  4.8km/h 90% 0in /  0.0mm 113 W/m2
14:09 42.6 °F /  5.9 °C 39.9 °F /  4.4 °C 29.9in /  1011.9hPa NW 0.9mph /  1.4km/h 4mph /  6.4km/h 90% 0in /  0.0mm 146 W/m2
14:14 43 °F /  6.1 °C 40.3 °F /  4.6 °C 29.9in /  1011.9hPa Calm   3mph /  4.8km/h 90% 0in /  0.0mm 163 W/m2
14:19 43 °F /  6.1 °C 39.9 °F /  4.4 °C 29.9in /  1011.9hPa Calm   1mph /  1.6km/h 89% 0in /  0.0mm 120 W/m2
14:24 43.2 °F /  6.2 °C 40.1 °F /  4.5 °C 29.9in /  1011.9hPa Calm   3mph /  4.8km/h 89% 0in /  0.0mm 105 W/m2
14:29 43.3 °F /  6.3 °C 40.3 °F /  4.6 °C 29.9in /  1011.9hPa Calm   2mph /  3.2km/h 89% 0in /  0.0mm 46 W/m2
14:34 43.3 °F /  6.3 °C 40.3 °F /  4.6 °C 29.9in /  1011.9hPa Calm   1mph /  1.6km/h 89% 0in /  0.0mm 53 W/m2
14:39 43.3 °F /  6.3 °C 40.1 °F /  4.5 °C 29.9in /  1011.9hPa Calm     88% 0in /  0.0mm 54 W/m2
14:44 43.3 °F /  6.3 °C 40.1 °F /  4.5 °C 29.9in /  1011.9hPa Calm   1mph /  1.6km/h 88% 0in /  0.0mm 32 W/m2
14:49 43.3 °F /  6.3 °C 40.1 °F /  4.5 °C 29.9in /  1011.9hPa Calm     88% 0in /  0.0mm 32 W/m2
14:54 43.3 °F /  6.3 °C 40.3 °F /  4.6 °C 29.9in /  1011.9hPa Calm     89% 0in /  0.0mm 33 W/m2
14:59 43.3 °F /  6.3 °C 40.3 °F /  4.6 °C 29.9in /  1011.9hPa East 0.9mph /  1.4km/h 2mph /  3.2km/h 89% 0in /  0.0mm 32 W/m2
15:04 43.3 °F /  6.3 °C 40.3 °F /  4.6 °C 29.9in /  1012.2hPa Calm   1mph /  1.6km/h 89% 0in /  0.0mm 23 W/m2
15:09 43.3 °F /  6.3 °C 40.3 °F /  4.6 °C 29.9in /  1012.2hPa East 0.9mph /  1.4km/h 2mph /  3.2km/h 89% 0in /  0.0mm 12 W/m2
15:14 43.3 °F /  6.3 °C 40.3 °F /  4.6 °C 29.9in /  1012.2hPa Calm   2mph /  3.2km/h 89% 0in /  0.0mm 12 W/m2
15:19 43.2 °F /  6.2 °C 40.1 °F /  4.5 °C 29.9in /  1012.2hPa Calm   2mph /  3.2km/h 89% 0in /  0.0mm 12 W/m2
15:24 43.2 °F /  6.2 °C 40.1 °F /  4.5 °C 29.9in /  1012.2hPa Calm   1mph /  1.6km/h 89% 0in /  0.0mm 16 W/m2
15:29 43.2 °F /  6.2 °C 40.1 °F /  4.5 °C 29.9in /  1012.2hPa Calm   2mph /  3.2km/h 89% 0in /  0.0mm 18 W/m2
15:34 43.2 °F /  6.2 °C 40.1 °F /  4.5 °C 29.9in /  1012.2hPa Calm   1mph /  1.6km/h 89% 0in /  0.0mm 26 W/m2
15:39 43.2 °F /  6.2 °C 40.1 °F /  4.5 °C 29.9in /  1012.2hPa Calm     89% 0in /  0.0mm 21 W/m2
15:44 43.2 °F /  6.2 °C 40.5 °F /  4.7 °C 29.9in /  1012.2hPa Calm     90% 0in /  0.0mm 18 W/m2
15:49 43.2 °F /  6.2 °C 40.1 °F /  4.5 °C 29.9in /  1012.2hPa Calm     89% 0in /  0.0mm 19 W/m2
15:54 43.2 °F /  6.2 °C 40.1 °F /  4.5 °C 29.9in /  1012.2hPa Calm   2mph /  3.2km/h 89% 0in /  0.0mm 16 W/m2
15:59 43.2 °F /  6.2 °C 40.1 °F /  4.5 °C 29.9in /  1012.2hPa NW 2mph /  3.2km/h 3mph /  4.8km/h 89% 0in /  0.0mm 12 W/m2
16:04 43 °F /  6.1 °C 39.9 °F /  4.4 °C 29.9in /  1012.2hPa NE 0.9mph /  1.4km/h 2mph /  3.2km/h 89% 0in /  0.0mm 12 W/m2
16:09 43 °F /  6.1 °C 39.7 °F /  4.3 °C 29.9in /  1012.2hPa North 2mph /  3.2km/h 3mph /  4.8km/h 88% 0in /  0.0mm 12 W/m2
16:14 42.8 °F /  6 °C 39.6 °F /  4.2 °C 29.9in /  1012.2hPa ENE 2mph /  3.2km/h 2mph /  3.2km/h 88% 0in /  0.0mm 11 W/m2
16:19 42.6 °F /  5.9 °C 39.4 °F /  4.1 °C 29.9in /  1012.2hPa ESE 2.9mph /  4.7km/h 4mph /  6.4km/h 88% 0in /  0.0mm 7 W/m2
16:24 42.6 °F /  5.9 °C 39.4 °F /  4.1 °C 29.9in /  1012.2hPa ENE 0.9mph /  1.4km/h 3mph /  4.8km/h 88% 0in /  0.0mm 5 W/m2
16:29 42.6 °F /  5.9 °C 39.4 °F /  4.1 °C 29.9in /  1011.9hPa Calm   4mph /  6.4km/h 88% 0in /  0.0mm 5 W/m2
16:34 42.4 °F /  5.8 °C 39.4 °F /  4.1 °C 29.9in /  1011.9hPa Calm     89% 0in /  0.0mm 0 W/m2
16:39 42.4 °F /  5.8 °C 39.4 °F /  4.1 °C 29.9in /  1011.9hPa East 2mph /  3.2km/h 3mph /  4.8km/h 89% 0in /  0.0mm 0 W/m2
16:44 42.3 °F /  5.7 °C 39.2 °F /  4 °C 29.9in /  1011.9hPa Calm   1mph /  1.6km/h 89% 0in /  0.0mm 0 W/m2
16:49 42.3 °F /  5.7 °C 39.6 °F /  4.2 °C 29.9in /  1011.9hPa NE 0.9mph /  1.4km/h 4mph /  6.4km/h 90% 0in /  0.0mm 0 W/m2
16:54 42.1 °F /  5.6 °C 39.4 °F /  4.1 °C 29.9in /  1011.9hPa East 2mph /  3.2km/h 4mph /  6.4km/h 90% 0in /  0.0mm 0 W/m2
16:59 42.1 °F /  5.6 °C 39.4 °F /  4.1 °C 29.9in /  1011.9hPa ENE 2.9mph /  4.7km/h 5mph /  8km/h 90% 0in /  0.0mm 0 W/m2
17:04 42.1 °F /  5.6 °C 39.4 °F /  4.1 °C 29.9in /  1011.9hPa ENE 2mph /  3.2km/h 4mph /  6.4km/h 90% 0in /  0.0mm 0 W/m2
17:09 42.1 °F /  5.6 °C 39.4 °F /  4.1 °C 29.9in /  1011.9hPa NE 0.9mph /  1.4km/h 4mph /  6.4km/h 90% 0in /  0.0mm 0 W/m2
17:14 42.1 °F /  5.6 °C 39.4 °F /  4.1 °C 29.9in /  1011.9hPa NE 0.9mph /  1.4km/h 4mph /  6.4km/h 90% 0in /  0.0mm 0 W/m2
17:19 42.1 °F /  5.6 °C 39.4 °F /  4.1 °C 29.9in /  1011.9hPa ESE 0.9mph /  1.4km/h 3mph /  4.8km/h 90% 0in /  0.0mm 0 W/m2
17:24 41.9 °F /  5.5 °C 39.2 °F /  4 °C 29.9in /  1012.2hPa Calm   1mph /  1.6km/h 90% 0in /  0.0mm 0 W/m2
17:29 41.9 °F /  5.5 °C 39.4 °F /  4.1 °C 29.9in /  1011.9hPa Calm     91% 0in /  0.0mm 0 W/m2
17:34 41.7 °F /  5.4 °C 39.2 °F /  4 °C 29.9in /  1011.9hPa East 4mph /  6.4km/h 4mph /  6.4km/h 91% 0in /  0.0mm 0 W/m2
17:39 41.7 °F /  5.4 °C 39.2 °F /  4 °C 29.9in /  1011.9hPa NE 2.9mph /  4.7km/h 6mph /  9.7km/h 91% 0in /  0.0mm 0 W/m2
17:44 41.7 °F /  5.4 °C 39.2 °F /  4 °C 29.9in /  1011.5hPa East 2mph /  3.2km/h 4mph /  6.4km/h 91% 0in /  0.0mm 0 W/m2
17:49 41.7 °F /  5.4 °C 39.2 °F /  4 °C 29.9in /  1011.9hPa North 2mph /  3.2km/h 6mph /  9.7km/h 91% 0in /  0.0mm 0 W/m2
17:54 41.7 °F /  5.4 °C 39.2 °F /  4 °C 29.9in /  1011.9hPa ENE 2.9mph /  4.7km/h 3mph /  4.8km/h 91% 0in /  0.0mm 0 W/m2
17:59 41.7 °F /  5.4 °C 39.2 °F /  4 °C 29.9in /  1011.9hPa Calm     91% 0in /  0.0mm 0 W/m2
18:04 41.5 °F /  5.3 °C 39.2 °F /  4 °C 29.9in /  1011.9hPa Calm   4mph /  6.4km/h 91% 0in /  0.0mm 0 W/m2
18:09 41.5 °F /  5.3 °C 39.2 °F /  4 °C 29.9in /  1011.9hPa Calm   2mph /  3.2km/h 91% 0in /  0.0mm 0 W/m2
18:14 41.4 °F /  5.2 °C 39 °F /  3.9 °C 29.9in /  1011.9hPa ENE 0.9mph /  1.4km/h 3mph /  4.8km/h 91% 0in /  0.0mm 0 W/m2
18:19 41.4 °F /  5.2 °C 39.2 °F /  4 °C 29.9in /  1011.9hPa Calm     92% 0in /  0.0mm 0 W/m2
18:24 41.4 °F /  5.2 °C 39.2 °F /  4 °C 29.9in /  1011.9hPa East 2mph /  3.2km/h 3mph /  4.8km/h 92% 0in /  0.0mm 0 W/m2
18:29 41.4 °F /  5.2 °C 39.2 °F /  4 °C 29.9in /  1011.9hPa East 0.9mph /  1.4km/h 2mph /  3.2km/h 92% 0in /  0.0mm 0 W/m2
18:34 41.2 °F /  5.1 °C 39 °F /  3.9 °C 29.9in /  1011.5hPa East 0.9mph /  1.4km/h 3mph /  4.8km/h 92% 0in /  0.0mm 0 W/m2
18:39 41.4 °F /  5.2 °C 39.2 °F /  4 °C 29.9in /  1011.5hPa Calm   2mph /  3.2km/h 92% 0in /  0.0mm 0 W/m2
18:44 41.2 °F /  5.1 °C 39 °F /  3.9 °C 29.9in /  1011.5hPa ENE 6mph /  9.7km/h 7mph /  11.3km/h 92% 0in /  0.0mm 0 W/m2
18:49 41.4 °F /  5.2 °C 39.2 °F /  4 °C 29.9in /  1011.5hPa East 0.9mph /  1.4km/h 4mph /  6.4km/h 92% 0in /  0.0mm 0 W/m2
18:54 41.4 °F /  5.2 °C 39.2 °F /  4 °C 29.9in /  1011.5hPa Calm   2mph /  3.2km/h 92% 0in /  0.0mm 0 W/m2
18:59 41.2 °F /  5.1 °C 39 °F /  3.9 °C 29.9in /  1011.5hPa Calm   1mph /  1.6km/h 92% 0in /  0.0mm 0 W/m2
19:05 41 °F /  5 °C 38.8 °F /  3.8 °C 29.9in /  1011.5hPa Calm     92% 0in /  0.0mm 0 W/m2
19:10 40.6 °F /  4.8 °C 38.5 °F /  3.6 °C 29.9in /  1011.2hPa Calm   1mph /  1.6km/h 92% 0in /  0.0mm 0 W/m2
19:15 40.6 °F /  4.8 °C 38.8 °F /  3.8 °C 29.9in /  1011.5hPa East 0.9mph /  1.4km/h 1mph /  1.6km/h 93% 0in /  0.0mm 0 W/m2
19:20 40.6 °F /  4.8 °C 38.8 °F /  3.8 °C 29.9in /  1011.5hPa Calm   1mph /  1.6km/h 93% 0in /  0.0mm 0 W/m2
19:25 40.6 °F /  4.8 °C 38.8 °F /  3.8 °C 29.9in /  1011.2hPa Calm     93% 0in /  0.0mm 0 W/m2
19:30 40.5 °F /  4.7 °C 38.7 °F /  3.7 °C 29.9in /  1011.5hPa Calm     93% 0in /  0.0mm 0 W/m2
19:35 40.5 °F /  4.7 °C 38.7 °F /  3.7 °C 29.9in /  1011.5hPa Calm   2mph /  3.2km/h 93% 0in /  0.0mm 0 W/m2
19:40 40.5 °F /  4.7 °C 38.8 °F /  3.8 °C 29.9in /  1011.5hPa Calm     94% 0in /  0.0mm 0 W/m2
19:45 40.5 °F /  4.7 °C 38.8 °F /  3.8 °C 29.9in /  1011.5hPa Calm   3mph /  4.8km/h 94% 0in /  0.0mm 0 W/m2
19:50 40.5 °F /  4.7 °C 38.8 °F /  3.8 °C 29.9in /  1011.5hPa NNE 0.9mph /  1.4km/h 2mph /  3.2km/h 94% 0in /  0.0mm 0 W/m2
19:55 40.5 °F /  4.7 °C 38.8 °F /  3.8 °C 29.9in /  1011.5hPa NNE 0.9mph /  1.4km/h 3mph /  4.8km/h 94% 0in /  0.0mm 0 W/m2
20:00 40.5 °F /  4.7 °C 38.8 °F /  3.8 °C 29.9in /  1011.5hPa ENE 2mph /  3.2km/h 2mph /  3.2km/h 94% 0in /  0.0mm 0 W/m2
20:05 40.5 °F /  4.7 °C 38.8 °F /  3.8 °C 29.9in /  1011.5hPa Calm   2mph /  3.2km/h 94% 0in /  0.0mm 0 W/m2
20:10 40.5 °F /  4.7 °C 38.8 °F /  3.8 °C 29.9in /  1011.5hPa Calm     94% 0in /  0.0mm 0 W/m2
20:15 40.5 °F /  4.7 °C 38.8 °F /  3.8 °C 29.9in /  1011.2hPa Calm     94% 0in /  0.0mm 0 W/m2
20:20 40.3 °F /  4.6 °C 38.7 °F /  3.7 °C 29.9in /  1011.2hPa Calm   2mph /  3.2km/h 94% 0in /  0.0mm 0 W/m2
20:25 40.3 °F /  4.6 °C 38.7 °F /  3.7 °C 29.9in /  1011.2hPa Calm   1mph /  1.6km/h 94% 0in /  0.0mm 0 W/m2
20:30 40.1 °F /  4.5 °C 38.5 °F /  3.6 °C 29.9in /  1011.2hPa North 0.9mph /  1.4km/h 1mph /  1.6km/h 94% 0in /  0.0mm 0 W/m2
20:35 39.9 °F /  4.4 °C 38.3 °F /  3.5 °C 29.9in /  1011.2hPa North 0.9mph /  1.4km/h 1mph /  1.6km/h 94% 0in /  0.0mm 0 W/m2
20:40 39.7 °F /  4.3 °C 38.1 °F /  3.4 °C 29.9in /  1011.2hPa Calm   1mph /  1.6km/h 94% 0in /  0.0mm 0 W/m2
20:45 39.4 °F /  4.1 °C 37.6 °F /  3.1 °C 29.9in /  1011.2hPa Calm     93% 0in /  0.0mm 0 W/m2
20:50 39.2 °F /  4 °C 37.4 °F /  3 °C 29.9in /  1010.8hPa Calm     93% 0in /  0.0mm 0 W/m2
20:55 38.8 °F /  3.8 °C 37.2 °F /  2.9 °C 29.9in /  1010.8hPa Calm     94% 0in /  0.0mm 0 W/m2
21:00 38.7 °F /  3.7 °C 37 °F /  2.8 °C 29.9in /  1010.8hPa North 0.9mph /  1.4km/h 2mph /  3.2km/h 94% 0in /  0.0mm 0 W/m2
21:05 38.5 °F /  3.6 °C 36.9 °F /  2.7 °C 29.9in /  1010.8hPa Calm     94% 0in /  0.0mm 0 W/m2
21:10 38.1 °F /  3.4 °C 36.5 °F /  2.5 °C 29.9in /  1010.8hPa Calm   2mph /  3.2km/h 94% 0in /  0.0mm 0 W/m2
21:15 37.9 °F /  3.3 °C 36.3 °F /  2.4 °C 29.9in /  1010.8hPa Calm     94% 0in /  0.0mm 0 W/m2
21:20 37.9 °F /  3.3 °C 36.3 °F /  2.4 °C 29.9in /  1010.8hPa Calm     94% 0in /  0.0mm 0 W/m2
21:25 37.8 °F /  3.2 °C 36.1 °F /  2.3 °C 29.9in /  1011.2hPa Calm     94% 0in /  0.0mm 0 W/m2
21:30 37.6 °F /  3.1 °C 36 °F /  2.2 °C 29.9in /  1010.8hPa Calm   1mph /  1.6km/h 94% 0in /  0.0mm 0 W/m2
21:35 37.8 °F /  3.2 °C 36.5 °F /  2.5 °C 29.9in /  1010.8hPa ENE 0.9mph /  1.4km/h 2mph /  3.2km/h 95% 0in /  0.0mm 0 W/m2
21:40 37.8 °F /  3.2 °C 36.5 °F /  2.5 °C 29.9in /  1011.2hPa Calm   1mph /  1.6km/h 95% 0in /  0.0mm 0 W/m2
21:45 37.6 °F /  3.1 °C 36.3 °F /  2.4 °C 29.9in /  1011.2hPa Calm     95% 0in /  0.0mm 0 W/m2
21:50 37.6 °F /  3.1 °C 36.3 °F /  2.4 °C 29.9in /  1011.2hPa Calm     95% 0in /  0.0mm 0 W/m2
21:56 37.2 °F /  2.9 °C 36 °F /  2.2 °C 29.9in /  1011.2hPa Calm     95% 0in /  0.0mm 0 W/m2
22:01 37.2 °F /  2.9 °C 36 °F /  2.2 °C 29.9in /  1011.2hPa Calm   1mph /  1.6km/h 95% 0in /  0.0mm 0 W/m2
22:06 37.2 °F /  2.9 °C 36 °F /  2.2 °C 29.9in /  1010.8hPa Calm     95% 0in /  0.0mm 0 W/m2
22:11 37.4 °F /  3 °C 36.1 °F /  2.3 °C 29.9in /  1010.8hPa Calm   2mph /  3.2km/h 95% 0in /  0.0mm 0 W/m2
22:16 37.6 °F /  3.1 °C 36.3 °F /  2.4 °C 29.9in /  1010.8hPa Calm   1mph /  1.6km/h 95% 0in /  0.0mm 0 W/m2
22:21 37.6 °F /  3.1 °C 36.5 °F /  2.5 °C 29.9in /  1010.8hPa Calm     96% 0in /  0.0mm 0 W/m2
22:26 37.8 °F /  3.2 °C 36.7 °F /  2.6 °C 29.9in /  1011.2hPa Calm   1mph /  1.6km/h 96% 0in /  0.0mm 0 W/m2
22:31 37.9 °F /  3.3 °C 36.9 °F /  2.7 °C 29.9in /  1011.2hPa ENE 0.9mph /  1.4km/h 2mph /  3.2km/h 96% 0in /  0.0mm 0 W/m2
22:36 38.1 °F /  3.4 °C 37 °F /  2.8 °C 29.9in /  1010.8hPa Calm   1mph /  1.6km/h 96% 0in /  0.0mm 0 W/m2
22:41 38.3 °F /  3.5 °C 37.2 °F /  2.9 °C 29.9in /  1011.2hPa Calm     96% 0in /  0.0mm 0 W/m2
22:46 38.5 °F /  3.6 °C 37.4 °F /  3 °C 29.9in /  1011.2hPa Calm     96% 0in /  0.0mm 0 W/m2
22:51 38.5 °F /  3.6 °C 37.4 °F /  3 °C 29.9in /  1011.2hPa Calm     96% 0in /  0.0mm 0 W/m2
22:56 38.7 °F /  3.7 °C 37.6 °F /  3.1 °C 29.9in /  1010.8hPa Calm     96% 0in /  0.0mm 0 W/m2
23:01 38.8 °F /  3.8 °C 37.8 °F /  3.2 °C 29.9in /  1010.8hPa Calm     96% 0in /  0.0mm 0 W/m2
23:06 38.8 °F /  3.8 °C 37.8 °F /  3.2 °C 29.9in /  1010.8hPa Calm     96% 0in /  0.0mm 0 W/m2
23:11 38.8 °F /  3.8 °C 37.8 °F /  3.2 °C 29.9in /  1010.8hPa Calm     96% 0in /  0.0mm 0 W/m2
23:16 39 °F /  3.9 °C 37.9 °F /  3.3 °C 29.9in /  1010.8hPa Calm     96% 0in /  0.0mm 0 W/m2
23:21 39 °F /  3.9 °C 37.9 °F /  3.3 °C 29.9in /  1010.8hPa Calm     96% 0in /  0.0mm 0 W/m2
23:26 39 °F /  3.9 °C 37.9 °F /  3.3 °C 29.9in /  1010.8hPa Calm     96% 0in /  0.0mm 0 W/m2
23:31 39 °F /  3.9 °C 37.9 °F /  3.3 °C 29.9in /  1010.8hPa Calm     96% 0in /  0.0mm 0 W/m2
23:36 39 °F /  3.9 °C 37.9 °F /  3.3 °C 29.9in /  1010.8hPa Calm     96% 0in /  0.0mm 0 W/m2
23:41 39 °F /  3.9 °C 37.9 °F /  3.3 °C 29.9in /  1010.8hPa Calm     96% 0in /  0.0mm 0 W/m2
23:46 39 °F /  3.9 °C 37.9 °F /  3.3 °C 29.9in /  1010.8hPa Calm   1mph /  1.6km/h 96% 0in /  0.0mm 0 W/m2
23:51 39.4 °F /  4.1 °C 38.7 °F /  3.7 °C 29.9in /  1010.8hPa NE 2.9mph /  4.7km/h 4mph /  6.4km/h 97% 0in /  0.0mm 0 W/m2
23:56 39.6 °F /  4.2 °C 38.8 °F /  3.8 °C 29.9in /  1010.8hPa ENE 2.9mph /  4.7km/h 4mph /  6.4km/h 97% 0in /  0.0mm 0 W/m2
Juneau County Weather
Compliments of Weather Underground - 4 mb